createdAt,value
2022-10-11T00:02:29.429Z,98957.7
2022-10-11T00:08:04.299Z,98956.3
2022-10-11T00:13:39.466Z,98952.5
2022-10-11T00:19:14.277Z,98954.5
2022-10-11T00:24:49.174Z,98951
2022-10-11T00:30:23.974Z,98946
2022-10-11T00:35:59.208Z,98947.7
2022-10-11T00:41:35.095Z,98951
2022-10-11T00:47:10.052Z,98945
2022-10-11T00:52:45.029Z,98942.7
2022-10-11T00:58:19.840Z,98946.8
2022-10-11T01:03:54.896Z,98949.1
2022-10-11T01:09:30.191Z,98942.4
2022-10-11T01:15:05.010Z,98942.9
2022-10-11T01:20:39.667Z,98947.6
2022-10-11T01:26:14.430Z,98946.4
2022-10-11T01:31:49.584Z,98946.9
2022-10-11T01:37:24.494Z,98946
2022-10-11T01:42:59.527Z,98948.1
2022-10-11T01:48:34.459Z,98945.7
2022-10-11T01:54:09.433Z,98931.5
2022-10-11T01:59:44.475Z,98935.9
2022-10-11T02:05:19.614Z,98934.4
2022-10-11T02:10:54.345Z,98926.8
2022-10-11T02:16:29.039Z,98927.4
2022-10-11T02:22:04.207Z,98924.4
2022-10-11T02:27:40.086Z,98924.5
2022-10-11T02:33:14.839Z,98921.7
2022-10-11T02:38:49.658Z,98922
2022-10-11T02:44:24.531Z,98918.9
2022-10-11T02:49:59.479Z,98912.1
2022-10-11T02:55:34.202Z,98897.1
2022-10-11T03:01:09.307Z,98901.5
2022-10-11T03:06:44.753Z,98903.6
2022-10-11T03:12:19.593Z,98903
2022-10-11T03:17:54.828Z,98896.1
2022-10-11T03:23:29.506Z,98894.5
2022-10-11T03:29:04.702Z,98893.5
2022-10-11T03:34:40.013Z,98896.5
2022-10-11T03:40:14.827Z,98892.4
2022-10-11T03:45:49.606Z,98894.6
2022-10-11T03:51:24.215Z,98894.5
2022-10-11T03:56:58.871Z,98898.7
2022-10-11T04:02:39.742Z,98893.3
2022-10-11T04:08:16.208Z,98887.8
2022-10-11T04:13:51.403Z,98891.8
2022-10-11T04:19:33.328Z,98888.4
2022-10-11T04:25:08.133Z,98887.3
2022-10-11T04:30:43.094Z,98891
2022-10-11T04:36:17.991Z,98889
2022-10-11T04:41:52.973Z,98892.6
2022-10-11T04:47:29.115Z,98891.3
2022-10-11T04:53:05.625Z,98892.2
2022-10-11T04:58:40.855Z,98890.9
2022-10-11T05:04:15.467Z,98896.5
2022-10-11T05:09:50.392Z,98901.4
2022-10-11T05:15:26.195Z,98902.4
2022-10-11T05:21:00.886Z,98907.3
2022-10-11T05:26:35.857Z,98911.5
2022-10-11T05:32:10.990Z,98914.8
2022-10-11T05:37:45.843Z,98915.1
2022-10-11T05:43:20.561Z,98918.7
2022-10-11T05:48:55.325Z,98925.6
2022-10-11T05:54:30.467Z,98930.3
2022-10-11T06:00:05.606Z,98932.9
2022-10-11T06:05:40.719Z,98934.9
2022-10-11T06:11:17.092Z,98939.9
2022-10-11T06:16:51.848Z,98943
2022-10-11T06:22:27.094Z,98949.7
2022-10-11T06:28:01.976Z,98952.8
2022-10-11T06:33:36.805Z,98953.1
2022-10-11T06:39:11.620Z,98949.5
2022-10-11T06:44:46.493Z,98953
2022-10-11T06:51:00.707Z,98955
2022-10-11T06:56:37.048Z,98958.3
2022-10-11T07:02:12.692Z,98962.7
2022-10-11T07:07:47.391Z,98967.6
2022-10-11T07:13:22.297Z,98975.2
2022-10-11T07:19:01.696Z,98986.5
2022-10-11T07:24:36.651Z,99000.5
2022-10-11T07:30:11.800Z,99004.4
2022-10-11T07:35:49.362Z,99008
2022-10-11T07:41:24.295Z,99013.5
2022-10-11T07:46:59.133Z,99029.3
2022-10-11T07:52:34.027Z,99036.4
2022-10-11T07:58:09.184Z,99036.5
2022-10-11T08:03:44.209Z,99044.7
2022-10-11T08:09:19.333Z,99044.5
2022-10-11T08:14:54.494Z,99046.3
2022-10-11T08:20:29.963Z,99043.6
2022-10-11T08:26:08.268Z,99045.5
2022-10-11T08:31:45.059Z,99042.6
2022-10-11T08:37:19.805Z,99049.5
2022-10-11T08:42:54.746Z,99056.4
2022-10-11T08:48:30.649Z,99062.8
2022-10-11T08:54:08.487Z,99069.1
2022-10-11T08:59:43.801Z,99071
2022-10-11T09:05:18.715Z,99071.2
2022-10-11T09:10:54.796Z,99072.5
2022-10-11T09:16:29.660Z,99072.9
2022-10-11T09:22:04.587Z,99082.6
2022-10-11T09:28:04.257Z,99086.5
2022-10-11T09:33:49.870Z,99087.4
2022-10-11T09:39:24.876Z,99089.9
2022-10-11T09:44:59.610Z,99095
2022-10-11T09:50:34.665Z,99099
2022-10-11T09:56:10.592Z,99098.7
2022-10-11T10:01:45.912Z,99097.8
2022-10-11T10:07:21.797Z,99098.2
2022-10-11T10:12:56.744Z,99100.5
2022-10-11T10:18:32.098Z,99100.5
2022-10-11T10:24:07.227Z,99099.2
2022-10-11T10:29:42.101Z,99106
2022-10-11T10:35:17.188Z,99102
2022-10-11T10:40:52.124Z,99101.6
2022-10-11T10:46:27.247Z,99100.2
2022-10-11T10:52:02.087Z,99101.6
2022-10-11T10:57:38.107Z,99100.1
2022-10-11T11:03:13.096Z,99103.8
2022-10-11T11:08:48.151Z,99098.2
2022-10-11T11:14:23.029Z,99097.7
2022-10-11T11:19:58.028Z,99100.1
2022-10-11T11:25:33.054Z,99099.2
2022-10-11T11:31:09.378Z,99099.3
2022-10-11T11:36:44.156Z,99100.4
2022-10-11T11:42:19.117Z,99095
2022-10-11T11:47:57.945Z,99087.2
2022-10-11T11:53:33.955Z,99082.7
2022-10-11T11:59:18.630Z,99075.7
2022-10-11T12:04:53.595Z,99069.3
2022-10-11T12:10:29.862Z,99059
2022-10-11T12:16:04.916Z,99054.9
2022-10-11T12:21:39.853Z,99047.3
2022-10-11T12:27:31.389Z,99035.3
2022-10-11T12:33:06.588Z,99033.4
2022-10-11T12:38:41.512Z,99032.5
2022-10-11T12:44:21.762Z,99031.5
2022-10-11T12:49:59.459Z,99027.1
2022-10-11T12:55:34.783Z,99014.9
2022-10-11T13:01:38.299Z,99010.9
2022-10-11T13:07:14.817Z,99006.2
2022-10-11T13:12:49.654Z,99001.1
2022-10-11T13:18:24.623Z,98995.9
2022-10-11T13:24:08.870Z,98998.7
2022-10-11T13:29:43.872Z,98994.5
2022-10-11T13:35:27.544Z,98991.7
2022-10-11T13:41:04.227Z,98991.1
2022-10-11T13:46:42.346Z,98990.3
2022-10-11T13:52:19.996Z,98992.1
2022-10-11T13:58:00.854Z,98992
2022-10-11T14:03:44.273Z,98991.5
2022-10-11T14:09:19.586Z,98988.7
2022-10-11T14:14:55.218Z,98990.4
2022-10-11T14:20:33.764Z,98992.5
2022-10-11T14:26:09.175Z,98997.3
2022-10-11T14:31:44.031Z,99000.4
2022-10-11T14:37:21.766Z,98997.9
2022-10-11T14:42:56.673Z,99001.9
2022-10-11T14:48:57.061Z,99003.5
2022-10-11T14:54:32.485Z,99005.5
2022-10-11T15:00:07.851Z,99009.3
2022-10-11T15:05:42.747Z,99009.8
2022-10-11T15:11:17.968Z,99004.9
2022-10-11T15:16:53.184Z,99004
2022-10-11T15:22:33.932Z,98993.1
2022-10-11T15:28:09.311Z,98988.4
2022-10-11T15:33:44.978Z,98991.9
2022-10-11T15:39:20.040Z,98991.1
2022-10-11T15:44:54.971Z,98988.8
2022-10-11T15:50:29.910Z,98989.6
2022-10-11T15:56:09.917Z,98995.5
2022-10-11T16:01:45.862Z,98995.7
2022-10-11T16:07:21.818Z,98993.7
2022-10-11T16:12:57.189Z,98995.7
2022-10-11T16:18:36.787Z,98999.4
2022-10-11T16:24:12.806Z,98999.2
2022-10-11T16:29:47.587Z,98999.5
2022-10-11T16:35:22.509Z,98996.6
2022-10-11T16:40:57.453Z,98998.2
2022-10-11T16:46:32.257Z,98998.7
2022-10-11T16:52:07.186Z,99002.8
2022-10-11T16:57:41.892Z,98998.2
2022-10-11T17:03:18.121Z,98998.7
2022-10-11T17:08:53.170Z,99000
2022-10-11T17:14:27.901Z,99005.8
2022-10-11T17:20:03.238Z,99009.2
2022-10-11T17:25:38.411Z,99013.7
2022-10-11T17:31:13.330Z,99019.2
2022-10-11T17:36:49.392Z,99024.2
2022-10-11T17:42:24.248Z,99023.1
2022-10-11T17:47:59.043Z,99024.4
2022-10-11T17:53:33.583Z,99030.5
2022-10-11T17:59:08.085Z,99031.9
2022-10-11T18:04:42.971Z,99027.2
2022-10-11T18:10:19.936Z,99028.1
2022-10-11T18:15:56.929Z,99032.3
2022-10-11T18:21:35.531Z,99034.4
2022-10-11T18:27:10.449Z,99033
2022-10-11T18:32:45.632Z,99035.5
2022-10-11T18:38:20.490Z,99032.1
2022-10-11T18:43:55.406Z,99041.6
2022-10-11T18:49:30.538Z,99047.7
2022-10-11T18:55:05.579Z,99052.3
2022-10-11T19:00:42.187Z,99047.8
2022-10-11T19:06:17.554Z,99048.2
2022-10-11T19:11:52.558Z,99057
2022-10-11T19:17:27.387Z,99058.2
2022-10-11T19:23:02.537Z,99065.6
2022-10-11T19:28:47.026Z,99069.1
2022-10-11T19:34:22.642Z,99072.9
2022-10-11T19:39:58.610Z,99075.5
2022-10-11T19:45:33.721Z,99077.9
2022-10-11T19:51:18.638Z,99074.5
2022-10-11T19:56:56.400Z,99074.5
2022-10-11T20:02:32.257Z,99073.2
2022-10-11T20:08:10.246Z,99070.3
2022-10-11T20:13:45.105Z,99071.2
2022-10-11T20:19:20.183Z,99074.4
2022-10-11T20:25:11.429Z,99075.9
2022-10-11T20:30:53.493Z,99080.3
2022-10-11T20:36:28.305Z,99080
2022-10-11T20:42:03.129Z,99086.4
2022-10-11T20:47:39.301Z,99089.9
2022-10-11T20:53:16.938Z,99100.5
2022-10-11T20:59:03.245Z,99098.1
2022-10-11T21:04:38.100Z,99099.5
2022-10-11T21:10:13.308Z,99105.9
2022-10-11T21:15:49.710Z,99099.3
2022-10-11T21:21:25.834Z,99108.9
2022-10-11T21:27:11.054Z,99110.9
2022-10-11T21:32:54.543Z,99110.1
2022-10-11T21:38:58.668Z,99109.5
2022-10-11T21:44:33.419Z,99109.9
2022-10-11T21:50:17.415Z,99106.4
2022-10-11T21:56:03.843Z,99109.1
2022-10-11T22:01:39.275Z,99103.1
2022-10-11T22:07:35.609Z,99107.3
2022-10-11T22:13:16.576Z,99113.5
2022-10-11T22:19:12.408Z,99106.5
2022-10-11T22:24:47.991Z,99108.8
2022-10-11T22:30:22.908Z,99109.5
2022-10-11T22:35:57.875Z,99115.2
2022-10-11T22:41:33.246Z,99114.3
2022-10-11T22:47:18.391Z,99111.3
2022-10-11T22:52:57.969Z,99119.2
2022-10-11T22:58:32.872Z,99117.4
2022-10-11T23:04:11.297Z,99116.4
2022-10-11T23:09:46.410Z,99109.3
2022-10-11T23:15:30.538Z,99109
2022-10-11T23:21:07.066Z,99107.2
2022-10-11T23:26:41.979Z,99102.8
2022-10-11T23:32:46.653Z,99109.6
2022-10-11T23:38:22.958Z,99114.7
2022-10-11T23:43:57.878Z,99115.4
2022-10-11T23:49:56.405Z,99110.3
2022-10-11T23:55:34.042Z,99109.9
